Time;durP1;ratioP1;P1;durP2;ratioP2;P2;SDS_P1;SDS_P2;PMS_P1;PMS_P2;Temp;Humidity;BMP_temperature;BMP_pressure;BME280_temperature;BME280_humidity;BME280_pressure;Samples;Min_cycle;Max_cycle;Signal;HPM_P1;HPM_P2
2021/07/16 00:00:16;;;;;;;23.02;5.25;;;17.00;99.90;;;;;;5035964;28;20051;-86
2021/07/16 00:02:46;;;;;;;19.05;4.88;;;17.00;99.90;;;;;;5052270;28;20045;-86
2021/07/16 00:05:13;;;;;;;25.50;5.32;;;17.00;99.90;;;;;;5052695;28;20049;-87
2021/07/16 00:07:41;;;;;;;23.10;5.10;;;17.00;99.90;;;;;;5051278;28;20049;-87
2021/07/16 00:10:10;;;;;;;19.88;5.10;;;16.90;99.90;;;;;;5036976;28;20076;-86
2021/07/16 00:12:38;;;;;;;20.65;5.35;;;17.00;99.90;;;;;;5035854;28;20504;-86
2021/07/16 00:15:09;;;;;;;23.30;5.63;;;17.00;99.90;;;;;;5052708;28;20405;-87
2021/07/16 00:17:36;;;;;;;19.58;5.50;;;17.00;99.90;;;;;;5035716;28;20068;-88
2021/07/16 00:20:05;;;;;;;18.17;4.85;;;17.00;99.90;;;;;;5052600;28;20072;-86
2021/07/16 00:22:32;;;;;;;22.08;5.10;;;17.00;99.90;;;;;;5052164;28;20037;-87
2021/07/16 00:24:59;;;;;;;18.38;5.68;;;17.00;99.90;;;;;;5051917;28;20079;-87
2021/07/16 00:27:26;;;;;;;21.52;5.65;;;17.00;99.90;;;;;;5036023;28;20041;-86
2021/07/16 00:29:53;;;;;;;25.38;5.75;;;17.00;99.90;;;;;;5035321;28;20041;-85
2021/07/16 00:32:20;;;;;;;20.80;5.88;;;17.00;99.90;;;;;;5031844;28;20046;-86
2021/07/16 00:34:47;;;;;;;22.17;5.93;;;16.90;99.90;;;;;;5016056;28;20100;-89
2021/07/16 00:37:16;;;;;;;19.77;5.63;;;16.90;99.90;;;;;;5036910;28;20065;-88
2021/07/16 00:39:43;;;;;;;19.20;5.40;;;16.90;99.90;;;;;;5020413;28;20089;-89
2021/07/16 00:42:10;;;;;;;23.60;5.88;;;16.90;99.90;;;;;;5036871;28;20033;-89
2021/07/16 00:44:37;;;;;;;16.83;5.00;;;16.80;99.90;;;;;;5019316;28;20052;-86
2021/07/16 00:47:05;;;;;;;19.90;5.65;;;16.80;99.90;;;;;;5034660;28;20502;-87
2021/07/16 00:49:33;;;;;;;18.20;5.28;;;16.80;99.90;;;;;;5035528;28;20073;-87
2021/07/16 00:52:00;;;;;;;19.88;5.72;;;16.80;99.90;;;;;;5035767;28;21141;-87
2021/07/16 00:54:28;;;;;;;17.50;4.93;;;16.80;99.90;;;;;;5035345;28;20513;-87
2021/07/16 00:56:55;;;;;;;21.65;4.85;;;16.80;99.90;;;;;;5051239;28;20041;-87
2021/07/16 00:59:25;;;;;;;18.67;4.20;;;16.80;99.90;;;;;;5035647;28;20486;-87
2021/07/16 01:01:55;;;;;;;17.50;5.00;;;16.80;99.90;;;;;;5051283;28;20041;-86
2021/07/16 01:04:23;;;;;;;20.50;4.75;;;16.80;99.90;;;;;;5052106;28;20065;-87
2021/07/16 01:06:50;;;;;;;22.05;5.55;;;16.80;99.90;;;;;;5035150;28;20096;-87
2021/07/16 01:09:16;;;;;;;24.48;5.45;;;16.80;99.90;;;;;;5052115;28;20041;-86
2021/07/16 01:11:43;;;;;;;21.90;5.43;;;16.80;99.90;;;;;;5018852;28;20409;-88
2021/07/16 01:14:12;;;;;;;17.30;4.53;;;16.70;99.90;;;;;;5051595;28;20049;-87
2021/07/16 01:16:39;;;;;;;21.83;4.97;;;16.70;99.90;;;;;;5051584;28;20131;-86
2021/07/16 01:19:10;;;;;;;23.08;5.65;;;16.70;99.90;;;;;;5068429;28;20137;-87
2021/07/16 01:21:38;;;;;;;17.65;4.38;;;16.70;99.90;;;;;;5051082;28;20053;-85
2021/07/16 01:24:07;;;;;;;18.63;4.15;;;16.70;99.90;;;;;;5034480;28;20050;-85
2021/07/16 01:26:36;;;;;;;19.73;4.40;;;16.70;99.90;;;;;;5034853;28;20049;-86
2021/07/16 01:29:03;;;;;;;21.98;4.72;;;16.70;99.90;;;;;;5034587;28;20050;-85
2021/07/16 01:31:31;;;;;;;19.65;4.32;;;16.70;99.90;;;;;;5019047;28;20106;-86
2021/07/16 01:33:58;;;;;;;18.67;4.65;;;16.70;99.90;;;;;;5034132;28;20545;-87
2021/07/16 01:36:25;;;;;;;21.83;4.63;;;16.70;99.90;;;;;;5034782;28;20421;-86
2021/07/16 01:38:52;;;;;;;21.00;4.43;;;16.70;99.90;;;;;;5034186;28;20048;-85
2021/07/16 01:41:19;;;;;;;26.55;4.88;;;16.70;99.90;;;;;;5034840;28;20057;-85
2021/07/16 01:43:46;;;;;;;21.48;4.60;;;16.70;99.90;;;;;;5034256;28;20056;-86
2021/07/16 01:46:14;;;;;;;17.67;4.88;;;16.70;99.90;;;;;;5034880;28;20091;-86
2021/07/16 01:48:40;;;;;;;23.42;5.50;;;16.70;99.90;;;;;;5034825;28;20041;-86
2021/07/16 01:51:07;;;;;;;17.25;4.38;;;16.70;99.90;;;;;;5033770;28;20045;-86
2021/07/16 01:53:35;;;;;;;21.95;4.63;;;16.60;99.90;;;;;;5034746;28;20048;-86
2021/07/16 01:56:02;;;;;;;25.35;5.28;;;16.60;99.90;;;;;;5034573;28;20053;-88
2021/07/16 01:58:28;;;;;;;20.33;4.68;;;16.60;99.90;;;;;;5034802;28;20107;-85
2021/07/16 02:00:56;;;;;;;20.75;5.15;;;16.60;99.90;;;;;;5033589;28;20045;-86
2021/07/16 02:03:23;;;;;;;23.17;5.50;;;16.60;99.90;;;;;;5017693;28;20137;-84
2021/07/16 02:05:50;;;;;;;20.95;4.60;;;16.60;99.90;;;;;;5033666;28;20387;-86
2021/07/16 02:08:22;;;;;;;19.77;4.65;;;16.50;99.90;;;;;;5050419;28;20045;-85
2021/07/16 02:10:54;;;;;;;19.60;5.10;;;16.50;99.90;;;;;;5050549;28;20065;-85
2021/07/16 02:13:23;;;;;;;24.30;5.00;;;16.50;99.90;;;;;;5050163;28;20121;-86
2021/07/16 02:15:51;;;;;;;19.17;4.70;;;16.50;99.90;;;;;;5034111;28;20111;-86
2021/07/16 02:18:19;;;;;;;17.77;4.53;;;16.50;99.90;;;;;;5050457;28;20045;-84
2021/07/16 02:20:47;;;;;;;16.00;4.65;;;16.40;99.90;;;;;;5034068;28;20042;-85
2021/07/16 02:23:20;;;;;;;15.82;4.63;;;16.40;99.90;;;;;;5034274;28;20045;-86
2021/07/16 02:25:48;;;;;;;26.27;5.32;;;16.40;99.90;;;;;;5050311;28;20049;-86
2021/07/16 02:28:20;;;;;;;18.75;4.45;;;16.40;99.90;;;;;;5033997;28;20422;-87
2021/07/16 02:30:48;;;;;;;24.63;4.82;;;16.40;99.90;;;;;;5052111;28;20042;-86
2021/07/16 02:33:15;;;;;;;21.33;4.63;;;16.40;99.90;;;;;;5071573;28;20457;-85
2021/07/16 02:35:45;;;;;;;26.50;4.78;;;16.30;99.90;;;;;;5021801;28;20061;-86
2021/07/16 02:38:12;;;;;;;21.50;4.95;;;16.40;99.90;;;;;;5054015;28;20044;-85
2021/07/16 02:40:39;;;;;;;26.88;5.15;;;16.40;99.90;;;;;;5054060;28;20053;-85
2021/07/16 02:43:06;;;;;;;21.88;4.70;;;16.40;99.90;;;;;;5037159;28;20478;-86
2021/07/16 02:45:33;;;;;;;17.02;4.18;;;16.40;99.90;;;;;;5038047;28;20129;-85
2021/07/16 02:48:00;;;;;;;22.45;4.70;;;16.30;99.90;;;;;;5037393;28;20065;-86
2021/07/16 02:50:33;;;;;;;24.13;4.65;;;16.30;99.90;;;;;;5053700;28;20041;-85
2021/07/16 02:53:00;;;;;;;18.25;4.18;;;16.30;99.90;;;;;;5053551;28;20128;-86
2021/07/16 02:55:27;;;;;;;20.63;5.00;;;16.30;99.90;;;;;;5021155;28;20140;-85
2021/07/16 02:57:54;;;;;;;17.40;4.75;;;16.30;99.90;;;;;;5037449;28;20050;-85
2021/07/16 03:00:23;;;;;;;27.30;4.55;;;16.30;99.90;;;;;;5036692;28;20049;-86
2021/07/16 03:02:51;;;;;;;19.67;4.38;;;16.30;99.90;;;;;;5071288;28;20136;-84
2021/07/16 03:05:27;;;;;;;17.77;4.70;;;16.10;99.90;;;;;;5037206;28;20134;-86
2021/07/16 03:07:55;;;;;;;16.70;4.70;;;16.30;99.90;;;;;;5053938;28;20099;-85
2021/07/16 03:10:32;;;;;;;16.27;4.45;;;16.30;99.90;;;;;;5053612;28;20042;-86
2021/07/16 03:13:01;;;;;;;21.92;4.53;;;16.30;99.90;;;;;;5053556;28;20098;-86
2021/07/16 03:15:28;;;;;;;24.02;4.80;;;16.30;99.90;;;;;;5053926;28;20095;-85
2021/07/16 03:17:56;;;;;;;23.55;4.80;;;16.30;99.90;;;;;;5053592;28;20593;-85
2021/07/16 03:20:28;;;;;;;23.95;4.60;;;16.30;99.90;;;;;;5036573;28;20049;-86
2021/07/16 03:22:59;;;;;;;23.73;4.82;;;16.20;99.90;;;;;;5052725;28;20055;-85
2021/07/16 03:25:27;;;;;;;23.55;4.70;;;16.20;99.90;;;;;;5037081;28;20053;-86
2021/07/16 03:27:55;;;;;;;23.50;4.80;;;16.20;99.90;;;;;;5037204;28;20049;-87
2021/07/16 03:30:28;;;;;;;25.70;5.88;;;16.20;99.90;;;;;;5036559;28;20402;-86
2021/07/16 03:32:56;;;;;;;24.20;5.40;;;16.20;99.90;;;;;;5053387;28;20045;-87
2021/07/16 03:35:24;;;;;;;28.98;5.13;;;16.20;99.90;;;;;;5036592;28;20108;-87
2021/07/16 03:37:52;;;;;;;20.05;5.10;;;16.20;99.90;;;;;;5036285;28;20056;-86
2021/07/16 03:40:23;;;;;;;25.35;5.03;;;16.20;99.90;;;;;;5052053;28;20268;-87
2021/07/16 03:42:50;;;;;;;23.00;4.97;;;16.20;99.90;;;;;;5036328;28;20045;-87
2021/07/16 03:45:18;;;;;;;20.70;4.70;;;16.20;99.90;;;;;;5036078;28;20046;-87
2021/07/16 03:47:47;;;;;;;21.13;4.55;;;16.10;99.90;;;;;;5036582;28;20076;-86
2021/07/16 03:50:16;;;;;;;25.75;4.70;;;16.10;99.90;;;;;;5035416;28;20048;-86
2021/07/16 03:52:44;;;;;;;21.83;4.88;;;16.10;99.90;;;;;;5051545;28;20128;-84
2021/07/16 03:55:11;;;;;;;23.27;5.03;;;16.10;99.90;;;;;;5035140;28;20052;-87
2021/07/16 03:57:43;;;;;;;24.25;5.22;;;16.10;99.90;;;;;;5070544;28;20044;-86
2021/07/16 04:00:13;;;;;;;28.05;5.32;;;16.20;99.90;;;;;;5036252;28;20136;-85
2021/07/16 04:02:41;;;;;;;18.15;4.70;;;16.20;99.90;;;;;;5052818;28;20053;-86
2021/07/16 04:05:09;;;;;;;19.35;4.57;;;16.20;99.90;;;;;;5036453;28;20057;-87
2021/07/16 04:07:44;;;;;;;19.67;4.53;;;16.20;99.90;;;;;;5052654;28;20041;-86
2021/07/16 04:10:20;;;;;;;27.67;4.97;;;16.20;99.90;;;;;;5036886;28;20049;-86
2021/07/16 04:12:55;;;;;;;22.23;4.43;;;16.20;99.90;;;;;;5070019;28;20060;-86
2021/07/16 04:15:24;;;;;;;;;;;16.20;99.90;;;;;;5052380;28;20076;-87
2021/07/16 04:17:51;;;;;;;22.75;4.50;;;16.20;99.90;;;;;;5036863;28;19923;-86
2021/07/16 04:20:18;;;;;;;27.77;4.93;;;16.20;99.90;;;;;;5069495;28;20068;-86
2021/07/16 04:22:45;;;;;;;18.90;4.20;;;16.20;99.90;;;;;;5036105;28;20156;-85
2021/07/16 04:25:16;;;;;;;19.20;4.40;;;16.20;99.90;;;;;;5035541;28;20566;-86
2021/07/16 04:27:44;;;;;;;20.65;4.93;;;16.20;99.90;;;;;;5036275;28;20065;-85
2021/07/16 04:30:12;;;;;;;30.75;5.25;;;16.30;99.90;;;;;;5035360;28;20391;-86
2021/07/16 04:32:40;;;;;;;25.85;4.60;;;16.20;99.90;;;;;;5035552;28;20053;-86
2021/07/16 04:35:09;;;;;;;23.10;4.50;;;16.30;99.90;;;;;;5035165;28;20092;-86
2021/07/16 04:37:36;;;;;;;23.95;5.30;;;16.30;99.90;;;;;;5051751;28;20045;-86
2021/07/16 04:40:05;;;;;;;26.58;4.97;;;16.30;99.90;;;;;;5052091;28;20041;-86
2021/07/16 04:42:35;;;;;;;29.45;5.15;;;16.30;99.90;;;;;;5020327;28;20053;-85
2021/07/16 04:45:03;;;;;;;29.20;5.10;;;16.30;99.90;;;;;;5051972;28;20050;-86
2021/07/16 04:47:30;;;;;;;31.13;5.40;;;16.30;99.90;;;;;;5051516;28;20124;-85
2021/07/16 04:49:57;;;;;;;26.35;5.15;;;16.30;99.90;;;;;;5035029;28;20512;-85
2021/07/16 04:52:24;;;;;;;26.52;4.80;;;16.30;99.90;;;;;;5018898;28;20060;-85
2021/07/16 04:54:51;;;;;;;26.23;4.78;;;16.30;99.90;;;;;;5035176;28;20049;-85
2021/07/16 04:57:18;;;;;;;30.77;4.80;;;16.30;99.90;;;;;;5034793;28;20081;-85
2021/07/16 04:59:46;;;;;;;28.40;5.05;;;16.30;99.90;;;;;;5035113;28;20042;-84
2021/07/16 05:02:13;;;;;;;22.25;4.82;;;16.30;99.90;;;;;;5034833;28;20068;-85
2021/07/16 05:04:40;;;;;;;28.52;4.90;;;16.30;99.90;;;;;;5035081;28;20045;-84
2021/07/16 05:07:08;;;;;;;26.10;5.18;;;16.40;99.90;;;;;;5018777;28;20148;-84
2021/07/16 05:09:34;;;;;;;21.98;4.72;;;16.40;99.90;;;;;;5034314;28;20048;-85
2021/07/16 05:12:01;;;;;;;26.67;4.90;;;16.40;99.90;;;;;;5034338;28;20041;-85
2021/07/16 05:14:28;;;;;;;29.52;5.60;;;16.40;99.90;;;;;;5050429;28;20081;-84
2021/07/16 05:16:56;;;;;;;29.42;5.05;;;16.40;99.90;;;;;;5034748;28;20049;-84
2021/07/16 05:19:26;;;;;;;27.35;5.57;;;16.40;99.90;;;;;;5019742;28;20061;-85
2021/07/16 05:21:53;;;;;;;30.65;5.32;;;16.40;99.90;;;;;;5034500;28;20477;-85
2021/07/16 05:24:20;;;;;;;24.77;4.55;;;16.50;99.90;;;;;;5034371;28;20049;-85
2021/07/16 05:26:47;;;;;;;31.17;6.05;;;16.50;99.90;;;;;;5018495;28;20049;-85
2021/07/16 05:29:13;;;;;;;23.98;5.00;;;16.50;99.90;;;;;;5033895;28;20048;-85
2021/07/16 05:31:40;;;;;;;28.20;5.90;;;16.50;99.90;;;;;;5051015;28;20505;-85
2021/07/16 05:34:07;;;;;;;23.15;4.90;;;16.60;99.90;;;;;;5034669;28;20391;-86
2021/07/16 05:36:34;;;;;;;23.38;4.57;;;16.50;99.90;;;;;;5034475;28;20088;-86
2021/07/16 05:39:04;;;;;;;30.70;4.82;;;16.60;99.90;;;;;;5050772;28;20056;-85
2021/07/16 05:41:32;;;;;;;23.15;5.18;;;16.60;99.90;;;;;;5035017;28;20046;-85
2021/07/16 05:43:59;;;;;;;29.33;5.97;;;16.60;99.90;;;;;;5034834;28;20390;-85
2021/07/16 05:46:28;;;;;;;24.77;5.60;;;16.60;99.90;;;;;;5018215;28;20187;-86
2021/07/16 05:48:55;;;;;;;24.98;5.13;;;16.70;99.90;;;;;;5035120;28;20041;-86
2021/07/16 05:51:22;;;;;;;27.88;5.68;;;16.60;99.90;;;;;;5034287;28;20069;-86
2021/07/16 05:53:49;;;;;;;30.58;5.68;;;16.60;99.90;;;;;;5034748;28;20053;-85
2021/07/16 05:56:16;;;;;;;22.27;5.10;;;16.70;99.90;;;;;;5050370;28;20064;-86
2021/07/16 05:58:43;;;;;;;30.85;5.93;;;16.70;99.90;;;;;;5034435;28;20069;-85
2021/07/16 06:01:10;;;;;;;31.27;6.00;;;16.70;99.90;;;;;;5034479;28;20474;-85
2021/07/16 06:03:37;;;;;;;26.13;5.45;;;16.80;99.90;;;;;;5034204;28;20041;-85
2021/07/16 06:06:04;;;;;;;29.42;5.65;;;16.80;99.90;;;;;;5017030;28;20050;-85
2021/07/16 06:08:32;;;;;;;27.40;5.50;;;16.80;99.90;;;;;;5034276;28;20053;-86
2021/07/16 06:10:59;;;;;;;28.17;5.95;;;16.80;99.90;;;;;;5034009;28;20498;-86
2021/07/16 06:13:26;;;;;;;26.20;5.65;;;16.80;99.90;;;;;;5046386;28;20108;-86
2021/07/16 06:15:53;;;;;;;30.50;5.47;;;16.90;99.90;;;;;;5014795;28;20487;-85
2021/07/16 06:18:22;;;;;;;26.25;5.50;;;16.90;99.90;;;;;;5014642;28;20045;-86
2021/07/16 06:20:50;;;;;;;32.17;5.72;;;16.90;99.90;;;;;;5015170;28;20388;-85
2021/07/16 06:23:17;;;;;;;25.17;5.65;;;16.90;99.90;;;;;;5014877;28;20096;-87
2021/07/16 06:25:44;;;;;;;29.20;6.05;;;16.90;99.90;;;;;;5014341;28;20050;-85
2021/07/16 06:28:11;;;;;;;28.90;5.72;;;17.00;99.90;;;;;;4998624;28;20042;-85
2021/07/16 06:30:38;;;;;;;32.20;5.10;;;17.00;99.90;;;;;;5030420;28;20057;-86
2021/07/16 06:33:06;;;;;;;29.73;6.10;;;17.00;99.90;;;;;;5014533;28;20038;-85
2021/07/16 06:35:33;;;;;;;29.40;5.35;;;17.00;99.90;;;;;;5013878;28;20054;-86
2021/07/16 06:38:00;;;;;;;29.70;5.78;;;17.00;99.90;;;;;;5030973;28;20046;-85
2021/07/16 06:40:28;;;;;;;28.15;6.38;;;17.00;99.90;;;;;;5014861;28;20042;-88
2021/07/16 06:42:55;;;;;;;25.65;5.90;;;17.00;99.90;;;;;;5014505;28;20042;-85
2021/07/16 06:45:22;;;;;;;20.65;5.38;;;17.00;99.90;;;;;;5014608;28;20402;-87
2021/07/16 06:47:52;;;;;;;24.48;5.82;;;17.00;99.90;;;;;;5048289;28;20038;-87
2021/07/16 06:50:19;;;;;;;34.45;6.00;;;17.00;99.90;;;;;;4999676;28;20046;-87
2021/07/16 06:52:46;;;;;;;31.45;6.57;;;17.10;99.90;;;;;;4998661;28;20470;-88
2021/07/16 06:55:13;;;;;;;31.02;6.68;;;17.10;99.90;;;;;;5014839;28;20071;-87
2021/07/16 06:57:41;;;;;;;33.95;6.10;;;17.10;99.90;;;;;;5047445;28;20046;-88
2021/07/16 07:00:09;;;;;;;27.83;6.18;;;17.20;99.90;;;;;;4999744;28;20557;-89
2021/07/16 07:02:36;;;;;;;33.10;5.75;;;17.20;99.90;;;;;;5015472;28;20070;-90
2021/07/16 07:05:04;;;;;;;28.92;6.35;;;17.30;99.90;;;;;;5000005;28;20387;-89
2021/07/16 07:07:31;;;;;;;26.75;5.03;;;17.30;99.90;;;;;;5031650;28;20482;-89
2021/07/16 07:09:59;;;;;;;27.30;5.95;;;17.30;99.90;;;;;;5015510;28;20049;-89
2021/07/16 07:12:25;;;;;;;35.10;6.13;;;17.30;99.90;;;;;;5003550;28;20124;-89
2021/07/16 07:14:53;;;;;;;33.80;6.07;;;17.40;99.90;;;;;;5019468;28;20042;-90
2021/07/16 07:17:20;;;;;;;28.08;5.60;;;17.30;99.90;;;;;;5039470;28;20441;-90
2021/07/16 07:19:47;;;;;;;27.48;5.78;;;17.40;99.90;;;;;;5038421;28;20470;-89
2021/07/16 07:22:14;;;;;;;30.98;5.47;;;17.40;99.90;;;;;;5054889;28;20537;-89
2021/07/16 07:24:41;;;;;;;36.67;6.07;;;17.40;99.90;;;;;;5005708;28;20050;-88
2021/07/16 07:27:08;;;;;;;31.13;5.85;;;17.50;99.90;;;;;;5006626;28;20083;-88
2021/07/16 07:29:35;;;;;;;38.25;6.22;;;17.50;99.90;;;;;;5037519;28;20042;-89
2021/07/16 07:32:03;;;;;;;30.58;5.57;;;17.60;99.90;;;;;;5037917;28;20486;-89
2021/07/16 07:34:30;;;;;;;28.95;5.82;;;17.60;99.90;;;;;;5021102;28;20053;-88
2021/07/16 07:36:57;;;;;;;28.73;6.03;;;17.60;99.90;;;;;;5037931;28;20108;-93
2021/07/16 07:39:24;;;;;;;23.05;5.55;;;17.60;99.90;;;;;;5006030;28;20513;-87
2021/07/16 07:41:51;;;;;;;29.05;5.65;;;17.70;99.90;;;;;;5037795;28;20041;-89
2021/07/16 07:44:18;;;;;;;26.02;5.55;;;17.70;99.90;;;;;;5021610;28;20508;-89
2021/07/16 07:46:45;;;;;;;26.67;5.70;;;17.70;99.90;;;;;;5035832;28;20113;-89
2021/07/16 07:49:13;;;;;;;26.85;5.40;;;17.70;99.90;;;;;;5021779;28;20053;-86
2021/07/16 07:51:42;;;;;;;25.38;5.63;;;17.70;99.90;;;;;;5053630;28;20049;-89
2021/07/16 07:54:09;;;;;;;27.52;5.47;;;17.80;99.90;;;;;;5037660;28;20077;-90
2021/07/16 07:56:38;;;;;;;34.72;6.15;;;17.80;99.90;;;;;;5021376;28;20060;-88
2021/07/16 07:59:06;;;;;;;30.02;5.82;;;17.80;99.90;;;;;;5038106;28;20042;-88
2021/07/16 08:01:34;;;;;;;27.50;5.88;;;17.80;99.90;;;;;;5037392;28;20057;-89
2021/07/16 08:04:02;;;;;;;29.70;5.85;;;17.80;99.90;;;;;;5037619;28;20494;-88
2021/07/16 08:06:29;;;;;;;31.08;5.32;;;17.80;99.90;;;;;;5053518;28;20556;-89
2021/07/16 08:08:57;;;;;;;31.05;6.15;;;17.90;99.90;;;;;;5053693;28;20038;-88
2021/07/16 08:11:25;;;;;;;31.42;5.85;;;17.80;99.90;;;;;;5020926;28;20056;-88
2021/07/16 08:13:52;;;;;;;30.40;5.90;;;17.80;99.90;;;;;;5032627;28;20057;-87
2021/07/16 08:16:19;;;;;;;29.40;6.03;;;17.80;99.90;;;;;;5016953;28;20426;-88
2021/07/16 08:18:49;;;;;;;30.08;6.00;;;17.80;99.90;;;;;;5000859;28;20049;-89
2021/07/16 08:21:15;;;;;;;28.10;5.63;;;17.80;99.90;;;;;;5050468;28;20065;-88
2021/07/16 08:23:42;;;;;;;28.90;5.80;;;17.80;99.90;;;;;;5016840;28;20073;-88
2021/07/16 08:26:11;;;;;;;29.20;5.93;;;17.90;99.90;;;;;;5001529;28;20475;-87
2021/07/16 08:28:38;;;;;;;26.40;5.70;;;17.90;99.90;;;;;;5015681;28;20419;-87
2021/07/16 08:31:05;;;;;;;30.52;6.07;;;17.90;99.90;;;;;;5016809;28;20046;-88
2021/07/16 08:33:32;;;;;;;30.70;6.28;;;18.00;99.90;;;;;;5001627;28;20465;-88
2021/07/16 08:35:59;;;;;;;32.80;6.22;;;18.10;99.90;;;;;;5016804;28;20061;-87
2021/07/16 08:38:27;;;;;;;32.00;5.75;;;18.10;99.90;;;;;;5033386;28;20053;-89
2021/07/16 08:40:54;;;;;;;32.10;6.80;;;18.10;99.90;;;;;;5000894;28;20054;-88
2021/07/16 08:43:24;;;;;;;29.27;5.85;;;18.20;99.90;;;;;;5001398;28;20054;-88
2021/07/16 08:45:52;;;;;;;26.17;6.25;;;18.20;99.90;;;;;;5001118;28;20059;-87
2021/07/16 08:48:19;;;;;;;31.13;6.80;;;18.20;99.90;;;;;;5017056;28;20053;-88
2021/07/16 08:50:47;;;;;;;31.75;6.10;;;18.20;99.90;;;;;;5049190;28;20045;-89
2021/07/16 08:53:13;;;;;;;34.20;6.85;;;18.30;99.90;;;;;;5001539;28;20045;-89
2021/07/16 08:55:42;;;;;;;37.13;7.20;;;18.40;99.90;;;;;;5000325;28;20049;-89
2021/07/16 08:58:10;;;;;;;24.77;6.65;;;18.50;99.90;;;;;;5001030;28;20406;-88
2021/07/16 09:00:38;;;;;;;30.77;6.80;;;18.70;99.90;;;;;;5016427;28;20050;-87
2021/07/16 09:03:05;;;;;;;29.15;6.45;;;18.70;99.90;;;;;;5016375;28;20048;-87
2021/07/16 09:05:39;;;;;;;28.75;6.55;;;18.80;99.90;;;;;;5000689;28;20056;-88
2021/07/16 09:08:20;;;;;;;34.53;6.60;;;18.70;99.90;;;;;;5001711;28;20478;-88
2021/07/16 09:10:58;;;;;;;30.13;6.47;;;18.60;99.90;;;;;;5032431;28;20463;-89
2021/07/16 09:13:29;;;;;;;31.30;6.60;;;18.60;99.90;;;;;;5026583;28;20418;-86
2021/07/16 09:16:00;;;;;;;30.73;7.03;;;18.60;99.90;;;;;;5051910;28;20045;-87
2021/07/16 09:18:36;;;;;;;31.20;6.70;;;18.50;99.90;;;;;;5035879;28;20077;-87
2021/07/16 09:21:05;;;;;;;26.83;6.20;;;18.50;99.90;;;;;;5035812;28;20104;-88
2021/07/16 09:23:33;;;;;;;30.60;6.70;;;18.60;99.90;;;;;;5036328;28;20131;-88
2021/07/16 09:26:07;;;;;;;28.50;6.78;;;18.60;99.90;;;;;;5035475;28;20474;-88
2021/07/16 09:28:34;;;;;;;31.95;7.32;;;18.60;99.90;;;;;;5052570;28;20045;-88
2021/07/16 09:31:24;;;;;;;32.10;7.57;;;18.60;99.90;;;;;;5019995;28;20049;-88
2021/07/16 09:34:01;;;;;;;24.33;7.45;;;18.60;99.90;;;;;;5035964;28;20096;-89
2021/07/16 09:36:40;;;;;;;27.13;6.85;;;18.60;99.90;;;;;;5037046;28;20478;-89
2021/07/16 09:39:13;;;;;;;29.13;6.78;;;18.60;99.90;;;;;;5036096;28;20387;-89
2021/07/16 09:41:50;;;;;;;32.10;6.47;;;18.60;99.90;;;;;;5052191;28;20374;-89
2021/07/16 09:44:30;;;;;;;34.20;6.90;;;18.60;99.90;;;;;;5036519;28;20087;-89
2021/07/16 09:47:17;;;;;;;25.40;6.07;;;18.60;99.90;;;;;;5019458;28;20053;-88
2021/07/16 09:50:07;;;;;;;30.20;7.65;;;18.60;99.90;;;;;;5035591;28;20054;-89
2021/07/16 09:52:34;;;;;;;33.40;6.97;;;18.60;99.90;;;;;;5052006;28;20044;-89
2021/07/16 09:55:08;;;;;;;26.65;6.15;;;18.60;99.90;;;;;;5020971;28;20402;-89
2021/07/16 09:57:45;;;;;;;28.03;6.30;;;18.70;99.90;;;;;;5035701;28;20042;-89
2021/07/16 10:00:19;;;;;;;24.45;6.50;;;18.80;99.90;;;;;;5035707;28;20045;-89
2021/07/16 10:02:50;;;;;;;30.00;6.85;;;18.80;99.90;;;;;;5051012;28;20479;-89
2021/07/16 10:05:19;;;;;;;30.95;6.97;;;18.90;99.90;;;;;;5035336;28;20628;-88
2021/07/16 10:07:47;;;;;;;27.33;6.35;;;19.00;99.90;;;;;;5035028;28;20053;-87
2021/07/16 10:10:21;;;;;;;27.70;6.03;;;19.10;99.90;;;;;;5035437;28;20057;-88
2021/07/16 10:12:50;;;;;;;26.83;6.67;;;19.20;99.90;;;;;;5050749;28;20065;-88
2021/07/16 10:15:20;;;;;;;28.00;6.20;;;19.20;99.90;;;;;;5051542;28;20406;-89
2021/07/16 10:17:48;;;;;;;31.95;6.00;;;19.30;99.90;;;;;;5019255;28;20404;-89
2021/07/16 10:20:17;;;;;;;25.08;5.82;;;19.30;99.90;;;;;;5003514;28;20053;-88
2021/07/16 10:22:47;;;;;;;29.17;6.10;;;19.30;99.90;;;;;;5018993;28;20586;-87
2021/07/16 10:25:19;;;;;;;27.40;5.97;;;19.30;99.90;;;;;;5051170;28;20054;-88
2021/07/16 10:27:46;;;;;;;31.50;7.00;;;19.40;99.90;;;;;;5051291;28;20053;-88
2021/07/16 10:30:18;;;;;;;26.58;6.28;;;19.40;99.90;;;;;;5035381;28;20411;-88
2021/07/16 10:32:50;;;;;;;24.42;5.78;;;19.40;99.90;;;;;;5035098;28;20065;-88
2021/07/16 10:35:21;;;;;;;33.30;7.32;;;19.40;99.90;;;;;;5034792;28;20458;-88
2021/07/16 10:38:02;;;;;;;30.67;5.90;;;19.40;99.90;;;;;;5050477;28;20049;-87
2021/07/16 10:40:36;;;;;;;35.88;6.75;;;19.50;99.90;;;;;;5032160;28;20052;-88
2021/07/16 10:43:04;;;;;;;29.88;6.13;;;19.60;99.90;;;;;;5050734;28;20509;-88
2021/07/16 10:45:37;;;;;;;31.60;6.05;;;19.70;99.90;;;;;;5034925;28;20049;-88
2021/07/16 10:48:18;;;;;;;27.65;6.53;;;19.70;99.90;;;;;;5035096;28;20057;-88
2021/07/16 10:50:47;;;;;;;28.83;6.88;;;19.70;99.90;;;;;;5051053;28;20049;-89
2021/07/16 10:53:36;;;;;;;27.95;6.32;;;19.80;99.90;;;;;;5054382;28;20179;-88
2021/07/16 10:56:06;;;;;;;30.90;7.72;;;19.90;99.90;;;;;;5053933;28;20052;-89
2021/07/16 10:58:35;;;;;;;28.92;7.70;;;19.90;99.90;;;;;;5054949;28;20118;-90
2021/07/16 11:01:07;;;;;;;27.63;7.28;;;19.90;99.90;;;;;;5054650;28;20038;-89
2021/07/16 11:03:52;;;;;;;29.08;6.72;;;19.90;99.90;;;;;;5022918;28;20045;-89
2021/07/16 11:06:21;;;;;;;23.17;6.45;;;19.80;99.90;;;;;;5055030;28;20125;-92
2021/07/16 11:08:52;;;;;;;28.98;6.60;;;19.70;99.90;;;;;;5038484;28;20057;-90
2021/07/16 11:11:34;;;;;;;25.17;6.47;;;19.80;99.90;;;;;;5038704;28;20049;-92
2021/07/16 11:14:02;;;;;;;24.60;6.38;;;19.80;99.90;;;;;;5034114;28;20053;-92
2021/07/16 11:16:34;;;;;;;25.45;6.18;;;19.80;99.90;;;;;;5035196;28;20080;-89
2021/07/16 11:19:07;;;;;;;24.83;5.85;;;19.90;99.90;;;;;;5032862;28;20383;-84
2021/07/16 11:21:42;;;;;;;28.00;7.07;;;19.90;99.90;;;;;;5050689;28;20053;-85
2021/07/16 11:24:24;;;;;;;31.65;6.75;;;19.90;99.90;;;;;;5050146;28;20050;-86
2021/07/16 11:26:55;;;;;;;26.75;6.47;;;20.00;99.90;;;;;;5033244;28;20044;-88
2021/07/16 11:29:23;;;;;;;29.63;6.90;;;19.90;99.90;;;;;;5049280;28;20043;-85
2021/07/16 11:32:07;;;;;;;27.05;6.15;;;20.00;99.90;;;;;;5033504;28;20100;-86
2021/07/16 11:34:35;;;;;;;23.17;6.72;;;20.00;99.90;;;;;;5058274;28;20123;-88
2021/07/16 11:37:03;;;;;;;24.23;8.35;;;20.10;99.90;;;;;;5016915;28;20096;-85
2021/07/16 11:39:35;;;;;;;24.52;8.00;;;20.10;99.90;;;;;;5033924;28;20065;-87
2021/07/16 11:42:09;;;;;;;24.10;6.45;;;20.30;99.90;;;;;;5033000;28;20054;-86
2021/07/16 11:44:41;;;;;;;25.77;6.47;;;20.30;99.90;;;;;;5017468;28;20050;-86
2021/07/16 11:47:19;;;;;;;23.92;6.43;;;20.40;99.90;;;;;;5032956;28;20402;-86
2021/07/16 11:50:00;;;;;;;29.98;6.72;;;20.30;99.90;;;;;;5033162;28;20046;-85
2021/07/16 11:52:30;;;;;;;25.67;6.70;;;20.30;99.90;;;;;;5016973;28;20057;-86
2021/07/16 11:55:15;;;;;;;25.27;6.72;;;20.30;99.90;;;;;;5016203;28;20052;-87
2021/07/16 11:57:47;;;;;;;27.92;7.28;;;20.40;99.90;;;;;;5049190;28;20050;-86
2021/07/16 12:00:15;;;;;;;29.38;6.60;;;20.50;99.90;;;;;;5016279;28;20509;-86
2021/07/16 12:02:43;;;;;;;28.17;6.70;;;20.50;99.90;;;;;;5032539;28;20049;-86
2021/07/16 12:05:11;;;;;;;26.33;7.07;;;20.50;99.90;;;;;;5015968;28;20053;-85
2021/07/16 12:07:42;;;;;;;23.50;6.50;;;20.50;99.90;;;;;;5032600;28;20506;-86
2021/07/16 12:10:13;;;;;;;28.45;6.65;;;20.50;99.90;;;;;;5025359;28;20052;-86
2021/07/16 12:12:41;;;;;;;23.38;6.97;;;20.60;99.90;;;;;;5028462;28;20054;-86
2021/07/16 12:15:09;;;;;;;21.40;6.65;;;20.60;99.90;;;;;;5028140;28;20446;-87
2021/07/16 12:17:37;;;;;;;22.27;6.45;;;20.60;99.90;;;;;;5036138;28;20055;-86
2021/07/16 12:20:09;;;;;;;26.00;7.07;;;20.70;99.90;;;;;;5051453;28;20038;-86
2021/07/16 12:22:42;;;;;;;21.60;6.13;;;20.80;99.90;;;;;;5052330;28;20128;-85
2021/07/16 12:25:11;;;;;;;24.17;6.88;;;20.90;99.90;;;;;;5051550;28;20056;-85
2021/07/16 12:27:38;;;;;;;27.38;7.25;;;20.90;99.90;;;;;;5051953;28;20049;-85
2021/07/16 12:30:13;;;;;;;29.83;6.60;;;20.90;99.90;;;;;;5051847;28;20115;-85
2021/07/16 12:32:47;;;;;;;31.30;7.25;;;20.90;99.90;;;;;;5070129;28;20041;-86
2021/07/16 12:35:43;;;;;;;21.08;6.63;;;20.90;99.90;;;;;;5041318;28;20482;-85
2021/07/16 12:38:13;;;;;;;;;;;21.00;99.90;;;;;;5036588;28;20107;-86
2021/07/16 12:40:45;;;;;;;24.17;6.38;;;21.00;99.90;;;;;;5052152;28;20363;-87
2021/07/16 12:43:16;;;;;;;25.17;6.43;;;21.10;99.90;;;;;;5052301;28;20073;-86
2021/07/16 12:45:56;;;;;;;22.42;6.55;;;21.00;99.90;;;;;;5053242;28;20051;-89
2021/07/16 12:48:30;;;;;;;32.92;7.07;;;20.90;99.90;;;;;;5036867;28;20136;-89